sensor_id;sensor_type;location;lat;lon;timestamp;temperature;humidity
23839;DHT22;12100;44.384;20.272;2022-09-29T00:01:32;14.30;99.90
23839;DHT22;12100;44.384;20.272;2022-09-29T00:03:57;14.20;99.90
23839;DHT22;12100;44.384;20.272;2022-09-29T00:06:23;14.30;99.90
23839;DHT22;12100;44.384;20.272;2022-09-29T00:08:49;14.20;99.90
23839;DHT22;12100;44.384;20.272;2022-09-29T00:11:17;14.20;99.90
23839;DHT22;12100;44.384;20.272;2022-09-29T00:13:44;14.30;99.90
23839;DHT22;12100;44.384;20.272;2022-09-29T00:16:11;14.30;99.90
23839;DHT22;12100;44.384;20.272;2022-09-29T00:18:37;14.30;99.90
23839;DHT22;12100;44.384;20.272;2022-09-29T00:21:12;14.40;99.90
23839;DHT22;12100;44.384;20.272;2022-09-29T00:23:38;14.40;99.90
23839;DHT22;12100;44.384;20.272;2022-09-29T00:26:09;14.40;99.90
23839;DHT22;12100;44.384;20.272;2022-09-29T00:28:37;14.50;99.90
23839;DHT22;12100;44.384;20.272;2022-09-29T00:31:05;14.50;99.90
23839;DHT22;12100;44.384;20.272;2022-09-29T00:33:32;14.50;99.90
23839;DHT22;12100;44.384;20.272;2022-09-29T00:36:01;14.50;99.90
23839;DHT22;12100;44.384;20.272;2022-09-29T00:38:28;14.60;99.90
23839;DHT22;12100;44.384;20.272;2022-09-29T00:40:54;14.60;99.90
23839;DHT22;12100;44.384;20.272;2022-09-29T00:43:45;14.60;99.90
23839;DHT22;12100;44.384;20.272;2022-09-29T00:46:10;14.60;99.90
23839;DHT22;12100;44.384;20.272;2022-09-29T00:48:37;14.60;99.90
23839;DHT22;12100;44.384;20.272;2022-09-29T00:51:04;14.60;99.90
23839;DHT22;12100;44.384;20.272;2022-09-29T00:53:30;14.70;99.90
23839;DHT22;12100;44.384;20.272;2022-09-29T00:56:07;14.70;99.90
23839;DHT22;12100;44.384;20.272;2022-09-29T01:01:00;14.90;99.90
23839;DHT22;12100;44.384;20.272;2022-09-29T01:03:32;15.00;99.90
23839;DHT22;12100;44.384;20.272;2022-09-29T01:06:04;15.00;99.90
23839;DHT22;12100;44.384;20.272;2022-09-29T01:11:06;15.10;99.90
23839;DHT22;12100;44.384;20.272;2022-09-29T01:13:34;15.20;99.90
23839;DHT22;12100;44.384;20.272;2022-09-29T01:16:00;15.30;99.90
23839;DHT22;12100;44.384;20.272;2022-09-29T01:18:26;15.30;99.90
23839;DHT22;12100;44.384;20.272;2022-09-29T01:32:14;15.50;99.90
23839;DHT22;12100;44.384;20.272;2022-09-29T01:35:12;15.50;99.90
23839;DHT22;12100;44.384;20.272;2022-09-29T01:40:35;15.50;99.90
23839;DHT22;12100;44.384;20.272;2022-09-29T01:43:07;15.50;99.90
23839;DHT22;12100;44.384;20.272;2022-09-29T01:45:43;15.60;99.90
23839;DHT22;12100;44.384;20.272;2022-09-29T01:48:25;15.70;99.90
23839;DHT22;12100;44.384;20.272;2022-09-29T01:50:55;15.70;99.90
23839;DHT22;12100;44.384;20.272;2022-09-29T01:53:49;15.80;99.90
23839;DHT22;12100;44.384;20.272;2022-09-29T01:56:37;16.00;99.90
23839;DHT22;12100;44.384;20.272;2022-09-29T02:01:55;16.10;99.90
23839;DHT22;12100;44.384;20.272;2022-09-29T02:04:30;16.10;99.90
23839;DHT22;12100;44.384;20.272;2022-09-29T02:07:03;16.10;99.90
23839;DHT22;12100;44.384;20.272;2022-09-29T02:09:41;16.20;99.90
23839;DHT22;12100;44.384;20.272;2022-09-29T02:12:12;16.20;99.90
23839;DHT22;12100;44.384;20.272;2022-09-29T02:14:42;16.20;99.90
23839;DHT22;12100;44.384;20.272;2022-09-29T02:17:21;16.20;99.90
23839;DHT22;12100;44.384;20.272;2022-09-29T02:19:50;16.20;99.90
23839;DHT22;12100;44.384;20.272;2022-09-29T02:22:17;16.20;99.90
23839;DHT22;12100;44.384;20.272;2022-09-29T02:24:44;16.10;99.90
23839;DHT22;12100;44.384;20.272;2022-09-29T02:27:10;16.10;99.90
23839;DHT22;12100;44.384;20.272;2022-09-29T02:29:37;16.20;99.90
23839;DHT22;12100;44.384;20.272;2022-09-29T02:32:05;16.20;99.90
23839;DHT22;12100;44.384;20.272;2022-09-29T02:34:34;16.40;99.90
23839;DHT22;12100;44.384;20.272;2022-09-29T02:37:24;16.50;99.90
23839;DHT22;12100;44.384;20.272;2022-09-29T02:47:49;17.00;99.90
23839;DHT22;12100;44.384;20.272;2022-09-29T02:58:14;17.10;98.60
23839;DHT22;12100;44.384;20.272;2022-09-29T03:00:42;17.30;96.90
23839;DHT22;12100;44.384;20.272;2022-09-29T03:03:09;17.30;97.60
23839;DHT22;12100;44.384;20.272;2022-09-29T03:05:35;17.30;97.50
23839;DHT22;12100;44.384;20.272;2022-09-29T03:08:01;17.10;98.50
23839;DHT22;12100;44.384;20.272;2022-09-29T03:10:27;17.10;98.60
23839;DHT22;12100;44.384;20.272;2022-09-29T03:12:54;17.10;98.60
23839;DHT22;12100;44.384;20.272;2022-09-29T03:15:20;17.00;99.90
23839;DHT22;12100;44.384;20.272;2022-09-29T03:17:45;17.00;99.90
23839;DHT22;12100;44.384;20.272;2022-09-29T03:20:11;17.00;99.00
23839;DHT22;12100;44.384;20.272;2022-09-29T03:22:37;16.90;99.90
23839;DHT22;12100;44.384;20.272;2022-09-29T03:25:04;16.90;99.90
23839;DHT22;12100;44.384;20.272;2022-09-29T03:27:31;16.90;99.90
23839;DHT22;12100;44.384;20.272;2022-09-29T03:29:57;16.90;99.90
23839;DHT22;12100;44.384;20.272;2022-09-29T03:32:23;16.90;99.90
23839;DHT22;12100;44.384;20.272;2022-09-29T03:34:49;16.90;99.40
23839;DHT22;12100;44.384;20.272;2022-09-29T03:37:15;16.90;99.90
23839;DHT22;12100;44.384;20.272;2022-09-29T03:39:41;16.90;98.80
23839;DHT22;12100;44.384;20.272;2022-09-29T03:42:06;16.90;99.90
23839;DHT22;12100;44.384;20.272;2022-09-29T03:44:32;16.80;99.90
23839;DHT22;12100;44.384;20.272;2022-09-29T03:46:58;16.80;99.90
23839;DHT22;12100;44.384;20.272;2022-09-29T03:49:25;16.80;97.90
23839;DHT22;12100;44.384;20.272;2022-09-29T03:51:50;16.90;99.80
23839;DHT22;12100;44.384;20.272;2022-09-29T03:54:17;16.90;98.70
23839;DHT22;12100;44.384;20.272;2022-09-29T03:56:42;17.00;97.40
23839;DHT22;12100;44.384;20.272;2022-09-29T03:59:08;17.00;98.00
23839;DHT22;12100;44.384;20.272;2022-09-29T04:01:36;17.10;98.30
23839;DHT22;12100;44.384;20.272;2022-09-29T04:04:03;17.00;99.10
23839;DHT22;12100;44.384;20.272;2022-09-29T04:06:28;17.10;96.60
23839;DHT22;12100;44.384;20.272;2022-09-29T04:08:54;17.20;96.90
23839;DHT22;12100;44.384;20.272;2022-09-29T04:11:20;17.30;95.20
23839;DHT22;12100;44.384;20.272;2022-09-29T04:13:46;17.30;96.10
23839;DHT22;12100;44.384;20.272;2022-09-29T04:16:12;17.30;95.90
23839;DHT22;12100;44.384;20.272;2022-09-29T04:18:38;17.20;97.50
23839;DHT22;12100;44.384;20.272;2022-09-29T04:21:08;17.10;98.20
23839;DHT22;12100;44.384;20.272;2022-09-29T04:23:34;17.00;98.80
23839;DHT22;12100;44.384;20.272;2022-09-29T04:26:01;17.00;97.80
23839;DHT22;12100;44.384;20.272;2022-09-29T04:28:31;17.00;98.50
23839;DHT22;12100;44.384;20.272;2022-09-29T04:30:57;16.90;98.40
23839;DHT22;12100;44.384;20.272;2022-09-29T04:33:23;16.90;98.20
23839;DHT22;12100;44.384;20.272;2022-09-29T04:35:49;16.90;97.80
23839;DHT22;12100;44.384;20.272;2022-09-29T04:38:16;17.00;97.80
23839;DHT22;12100;44.384;20.272;2022-09-29T04:40:41;17.00;95.90
23839;DHT22;12100;44.384;20.272;2022-09-29T04:43:07;17.10;97.60
23839;DHT22;12100;44.384;20.272;2022-09-29T04:45:33;17.00;98.90
23839;DHT22;12100;44.384;20.272;2022-09-29T04:47:59;17.10;95.80
23839;DHT22;12100;44.384;20.272;2022-09-29T04:50:25;17.20;96.80
23839;DHT22;12100;44.384;20.272;2022-09-29T04:52:50;17.10;95.50
23839;DHT22;12100;44.384;20.272;2022-09-29T04:55:16;17.30;94.90
23839;DHT22;12100;44.384;20.272;2022-09-29T04:57:43;17.40;95.20
23839;DHT22;12100;44.384;20.272;2022-09-29T05:00:09;17.40;95.20
23839;DHT22;12100;44.384;20.272;2022-09-29T05:02:36;17.40;95.30
23839;DHT22;12100;44.384;20.272;2022-09-29T05:05:03;17.40;95.40
23839;DHT22;12100;44.384;20.272;2022-09-29T05:07:29;17.30;97.40
23839;DHT22;12100;44.384;20.272;2022-09-29T05:09:54;17.30;96.40
23839;DHT22;12100;44.384;20.272;2022-09-29T05:12:20;17.20;97.00
23839;DHT22;12100;44.384;20.272;2022-09-29T05:14:46;17.20;97.00
23839;DHT22;12100;44.384;20.272;2022-09-29T05:17:12;17.10;97.50
23839;DHT22;12100;44.384;20.272;2022-09-29T05:19:38;17.10;97.10
23839;DHT22;12100;44.384;20.272;2022-09-29T05:22:04;17.20;97.40
23839;DHT22;12100;44.384;20.272;2022-09-29T05:24:30;17.20;97.60
23839;DHT22;12100;44.384;20.272;2022-09-29T05:26:56;17.10;98.60
23839;DHT22;12100;44.384;20.272;2022-09-29T05:29:22;17.10;99.00
23839;DHT22;12100;44.384;20.272;2022-09-29T05:31:48;17.20;97.90
23839;DHT22;12100;44.384;20.272;2022-09-29T05:34:14;17.10;99.00
23839;DHT22;12100;44.384;20.272;2022-09-29T05:36:40;17.10;99.90
23839;DHT22;12100;44.384;20.272;2022-09-29T05:39:06;17.00;99.90
23839;DHT22;12100;44.384;20.272;2022-09-29T05:41:32;17.00;99.90
23839;DHT22;12100;44.384;20.272;2022-09-29T05:43:57;17.10;99.90
23839;DHT22;12100;44.384;20.272;2022-09-29T05:46:26;17.10;99.20
23839;DHT22;12100;44.384;20.272;2022-09-29T05:48:52;17.30;97.80
23839;DHT22;12100;44.384;20.272;2022-09-29T05:51:21;17.40;98.20
23839;DHT22;12100;44.384;20.272;2022-09-29T05:53:47;17.40;97.50
23839;DHT22;12100;44.384;20.272;2022-09-29T05:56:24;17.60;97.10
23839;DHT22;12100;44.384;20.272;2022-09-29T05:58:50;17.70;96.20
23839;DHT22;12100;44.384;20.272;2022-09-29T06:01:24;17.80;95.90
23839;DHT22;12100;44.384;20.272;2022-09-29T06:03:52;17.90;96.50
23839;DHT22;12100;44.384;20.272;2022-09-29T06:06:20;18.00;96.70
23839;DHT22;12100;44.384;20.272;2022-09-29T06:08:47;18.00;95.90
23839;DHT22;12100;44.384;20.272;2022-09-29T06:11:19;18.10;95.00
23839;DHT22;12100;44.384;20.272;2022-09-29T06:13:47;18.20;94.50
23839;DHT22;12100;44.384;20.272;2022-09-29T06:16:14;18.30;94.60
23839;DHT22;12100;44.384;20.272;2022-09-29T06:18:40;18.30;94.80
23839;DHT22;12100;44.384;20.272;2022-09-29T06:21:11;18.30;94.50
23839;DHT22;12100;44.384;20.272;2022-09-29T06:23:38;18.30;94.70
23839;DHT22;12100;44.384;20.272;2022-09-29T06:26:06;18.40;94.80
23839;DHT22;12100;44.384;20.272;2022-09-29T06:28:32;18.40;94.80
23839;DHT22;12100;44.384;20.272;2022-09-29T06:30:59;18.40;94.40
23839;DHT22;12100;44.384;20.272;2022-09-29T06:33:26;18.40;93.70
23839;DHT22;12100;44.384;20.272;2022-09-29T06:35:52;18.30;94.70
23839;DHT22;12100;44.384;20.272;2022-09-29T06:38:37;18.40;93.80
23839;DHT22;12100;44.384;20.272;2022-09-29T06:41:02;18.50;93.40
23839;DHT22;12100;44.384;20.272;2022-09-29T06:43:28;18.50;93.80
23839;DHT22;12100;44.384;20.272;2022-09-29T06:45:54;18.50;93.90
23839;DHT22;12100;44.384;20.272;2022-09-29T06:48:20;18.40;94.50
23839;DHT22;12100;44.384;20.272;2022-09-29T06:50:46;18.40;94.20
23839;DHT22;12100;44.384;20.272;2022-09-29T06:53:12;18.40;94.30
23839;DHT22;12100;44.384;20.272;2022-09-29T06:55:39;18.40;94.70
23839;DHT22;12100;44.384;20.272;2022-09-29T06:58:05;18.30;95.00
23839;DHT22;12100;44.384;20.272;2022-09-29T07:00:31;18.30;95.30
23839;DHT22;12100;44.384;20.272;2022-09-29T07:02:58;18.30;96.20
23839;DHT22;12100;44.384;20.272;2022-09-29T07:05:23;18.20;96.40
23839;DHT22;12100;44.384;20.272;2022-09-29T07:07:49;18.20;97.30
23839;DHT22;12100;44.384;20.272;2022-09-29T07:10:15;18.20;98.50
23839;DHT22;12100;44.384;20.272;2022-09-29T07:12:41;18.10;99.20
23839;DHT22;12100;44.384;20.272;2022-09-29T07:15:09;18.00;99.10
23839;DHT22;12100;44.384;20.272;2022-09-29T07:17:35;18.00;98.60
23839;DHT22;12100;44.384;20.272;2022-09-29T10:45:47;21.20;93.70
23839;DHT22;12100;44.384;20.272;2022-09-29T10:48:13;22.50;90.40
23839;DHT22;12100;44.384;20.272;2022-09-29T10:53:41;22.90;88.70
23839;DHT22;12100;44.384;20.272;2022-09-29T10:56:19;23.60;84.80
23839;DHT22;12100;44.384;20.272;2022-09-29T10:58:57;23.60;85.10
23839;DHT22;12100;44.384;20.272;2022-09-29T11:01:25;23.90;81.70
23839;DHT22;12100;44.384;20.272;2022-09-29T11:04:02;24.10;83.00
23839;DHT22;12100;44.384;20.272;2022-09-29T11:06:36;23.90;80.20
23839;DHT22;12100;44.384;20.272;2022-09-29T11:09:26;23.80;80.40
23839;DHT22;12100;44.384;20.272;2022-09-29T11:11:55;23.50;78.40
23839;DHT22;12100;44.384;20.272;2022-09-29T11:19:49;23.50;78.00
23839;DHT22;12100;44.384;20.272;2022-09-29T11:36:00;23.20;78.50
23839;DHT22;12100;44.384;20.272;2022-09-29T11:50:13;25.60;69.90
23839;DHT22;12100;44.384;20.272;2022-09-29T11:56:16;26.10;67.30
23839;DHT22;12100;44.384;20.272;2022-09-29T11:59:02;26.30;67.40
23839;DHT22;12100;44.384;20.272;2022-09-29T12:10:24;27.80;59.40
23839;DHT22;12100;44.384;20.272;2022-09-29T12:16:01;28.70;56.80
23839;DHT22;12100;44.384;20.272;2022-09-29T12:18:48;29.50;55.00
23839;DHT22;12100;44.384;20.272;2022-09-29T12:21:41;29.00;54.90
23839;DHT22;12100;44.384;20.272;2022-09-29T12:26:43;30.50;52.50
23839;DHT22;12100;44.384;20.272;2022-09-29T12:29:36;29.70;52.60
23839;DHT22;12100;44.384;20.272;2022-09-29T12:32:28;28.90;54.40
23839;DHT22;12100;44.384;20.272;2022-09-29T12:35:05;28.00;56.70
23839;DHT22;12100;44.384;20.272;2022-09-29T12:40:42;25.80;62.50
23839;DHT22;12100;44.384;20.272;2022-09-29T12:43:36;25.30;66.50
23839;DHT22;12100;44.384;20.272;2022-09-29T12:51:50;24.70;67.20
23839;DHT22;12100;44.384;20.272;2022-09-29T12:54:30;24.80;67.10
23839;DHT22;12100;44.384;20.272;2022-09-29T12:56:58;24.70;67.50
23839;DHT22;12100;44.384;20.272;2022-09-29T12:59:36;24.70;68.00
23839;DHT22;12100;44.384;20.272;2022-09-29T13:19:34;24.10;71.90
23839;DHT22;12100;44.384;20.272;2022-09-29T13:27:25;23.50;71.40
23839;DHT22;12100;44.384;20.272;2022-09-29T13:30:19;23.40;71.30
23839;DHT22;12100;44.384;20.272;2022-09-29T13:33:01;23.30;72.50
23839;DHT22;12100;44.384;20.272;2022-09-29T13:35:41;23.20;72.50
23839;DHT22;12100;44.384;20.272;2022-09-29T13:38:20;23.10;72.40
23839;DHT22;12100;44.384;20.272;2022-09-29T13:54:41;22.90;74.20
23839;DHT22;12100;44.384;20.272;2022-09-29T14:00:13;22.80;74.70
23839;DHT22;12100;44.384;20.272;2022-09-29T14:02:43;22.80;74.70
23839;DHT22;12100;44.384;20.272;2022-09-29T14:10:40;22.80;75.80
23839;DHT22;12100;44.384;20.272;2022-09-29T14:15:39;22.90;74.20
23839;DHT22;12100;44.384;20.272;2022-09-29T14:21:09;22.90;74.40
23839;DHT22;12100;44.384;20.272;2022-09-29T14:29:28;22.90;74.30
23839;DHT22;12100;44.384;20.272;2022-09-29T14:31:57;22.90;74.10
23839;DHT22;12100;44.384;20.272;2022-09-29T14:34:30;22.80;74.50
23839;DHT22;12100;44.384;20.272;2022-09-29T14:36:59;22.80;74.50
23839;DHT22;12100;44.384;20.272;2022-09-29T14:39:27;22.70;74.50
23839;DHT22;12100;44.384;20.272;2022-09-29T14:41:53;22.70;75.90
23839;DHT22;12100;44.384;20.272;2022-09-29T14:44:50;22.60;75.30
23839;DHT22;12100;44.384;20.272;2022-09-29T14:56:13;22.40;75.10
23839;DHT22;12100;44.384;20.272;2022-09-29T14:59:03;22.30;75.50
23839;DHT22;12100;44.384;20.272;2022-09-29T15:01:32;22.30;75.30
23839;DHT22;12100;44.384;20.272;2022-09-29T15:04:15;22.10;74.80
23839;DHT22;12100;44.384;20.272;2022-09-29T15:06:50;22.00;75.40
23839;DHT22;12100;44.384;20.272;2022-09-29T15:09:21;22.00;76.90
23839;DHT22;12100;44.384;20.272;2022-09-29T15:11:51;21.90;76.70
23839;DHT22;12100;44.384;20.272;2022-09-29T15:14:24;21.80;77.60
23839;DHT22;12100;44.384;20.272;2022-09-29T15:17:07;21.80;77.80
23839;DHT22;12100;44.384;20.272;2022-09-29T15:28:20;21.60;79.10
23839;DHT22;12100;44.384;20.272;2022-09-29T15:30:49;21.50;80.10
23839;DHT22;12100;44.384;20.272;2022-09-29T15:33:28;21.40;80.40
23839;DHT22;12100;44.384;20.272;2022-09-29T15:36:03;21.30;79.90
23839;DHT22;12100;44.384;20.272;2022-09-29T15:38:35;21.20;80.60
23839;DHT22;12100;44.384;20.272;2022-09-29T15:41:16;21.10;80.90
23839;DHT22;12100;44.384;20.272;2022-09-29T15:44:00;21.10;81.40
23839;DHT22;12100;44.384;20.272;2022-09-29T15:46:34;21.00;81.10
23839;DHT22;12100;44.384;20.272;2022-09-29T15:49:16;20.90;81.90
23839;DHT22;12100;44.384;20.272;2022-09-29T15:51:54;20.80;82.40
23839;DHT22;12100;44.384;20.272;2022-09-29T15:54:21;20.70;83.10
23839;DHT22;12100;44.384;20.272;2022-09-29T15:56:48;20.70;83.00
23839;DHT22;12100;44.384;20.272;2022-09-29T15:59:41;20.60;82.70
23839;DHT22;12100;44.384;20.272;2022-09-29T16:02:59;20.50;84.00
23839;DHT22;12100;44.384;20.272;2022-09-29T16:05:02;20.40;83.30
23839;DHT22;12100;44.384;20.272;2022-09-29T16:07:34;20.30;83.70
23839;DHT22;12100;44.384;20.272;2022-09-29T16:10:13;20.30;83.80
23839;DHT22;12100;44.384;20.272;2022-09-29T16:12:52;20.20;84.60
23839;DHT22;12100;44.384;20.272;2022-09-29T16:15:33;20.10;84.90
23839;DHT22;12100;44.384;20.272;2022-09-29T16:18:04;20.00;85.10
23839;DHT22;12100;44.384;20.272;2022-09-29T16:20:32;20.00;85.60
23839;DHT22;12100;44.384;20.272;2022-09-29T16:23:21;19.90;85.50
23839;DHT22;12100;44.384;20.272;2022-09-29T16:28:33;19.80;86.60
23839;DHT22;12100;44.384;20.272;2022-09-29T16:31:16;19.60;86.90
23839;DHT22;12100;44.384;20.272;2022-09-29T16:33:44;19.60;87.10
23839;DHT22;12100;44.384;20.272;2022-09-29T16:36:17;19.50;87.40
23839;DHT22;12100;44.384;20.272;2022-09-29T16:38:45;19.50;88.10
23839;DHT22;12100;44.384;20.272;2022-09-29T16:41:23;19.40;87.90
23839;DHT22;12100;44.384;20.272;2022-09-29T16:44:02;19.40;87.90
23839;DHT22;12100;44.384;20.272;2022-09-29T16:46:31;19.40;88.50
23839;DHT22;12100;44.384;20.272;2022-09-29T16:48:57;19.30;88.50
23839;DHT22;12100;44.384;20.272;2022-09-29T16:51:23;19.30;88.50
23839;DHT22;12100;44.384;20.272;2022-09-29T16:53:50;19.30;89.00
23839;DHT22;12100;44.384;20.272;2022-09-29T16:56:30;19.20;89.00
23839;DHT22;12100;44.384;20.272;2022-09-29T16:59:12;19.20;88.80
23839;DHT22;12100;44.384;20.272;2022-09-29T17:01:41;19.30;88.60
23839;DHT22;12100;44.384;20.272;2022-09-29T17:04:09;19.30;89.00
23839;DHT22;12100;44.384;20.272;2022-09-29T17:06:35;19.30;88.20
23839;DHT22;12100;44.384;20.272;2022-09-29T17:09:03;19.30;88.20
23839;DHT22;12100;44.384;20.272;2022-09-29T17:11:29;19.30;88.40
23839;DHT22;12100;44.384;20.272;2022-09-29T17:13:55;19.40;87.90
23839;DHT22;12100;44.384;20.272;2022-09-29T17:16:23;19.30;88.80
23839;DHT22;12100;44.384;20.272;2022-09-29T17:18:51;19.20;89.20
23839;DHT22;12100;44.384;20.272;2022-09-29T17:21:18;19.20;88.80
23839;DHT22;12100;44.384;20.272;2022-09-29T17:23:44;19.30;88.20
23839;DHT22;12100;44.384;20.272;2022-09-29T17:26:40;19.20;89.00
23839;DHT22;12100;44.384;20.272;2022-09-29T17:29:25;19.20;88.80
23839;DHT22;12100;44.384;20.272;2022-09-29T17:31:51;19.10;89.00
23839;DHT22;12100;44.384;20.272;2022-09-29T17:34:17;19.00;89.70
23839;DHT22;12100;44.384;20.272;2022-09-29T17:36:57;19.00;89.80
23839;DHT22;12100;44.384;20.272;2022-09-29T17:39:24;19.00;90.10
23839;DHT22;12100;44.384;20.272;2022-09-29T17:41:50;18.90;90.10
23839;DHT22;12100;44.384;20.272;2022-09-29T17:44:16;18.90;90.20
23839;DHT22;12100;44.384;20.272;2022-09-29T17:46:42;18.80;90.50
23839;DHT22;12100;44.384;20.272;2022-09-29T17:49:11;18.70;90.60
23839;DHT22;12100;44.384;20.272;2022-09-29T17:51:37;18.70;90.80
23839;DHT22;12100;44.384;20.272;2022-09-29T17:54:03;18.70;90.80
23839;DHT22;12100;44.384;20.272;2022-09-29T17:56:29;18.60;90.90
23839;DHT22;12100;44.384;20.272;2022-09-29T17:59:02;18.60;91.00
23839;DHT22;12100;44.384;20.272;2022-09-29T18:01:31;18.50;91.00
23839;DHT22;12100;44.384;20.272;2022-09-29T18:03:59;18.50;91.10
23839;DHT22;12100;44.384;20.272;2022-09-29T18:06:25;18.40;91.50
23839;DHT22;12100;44.384;20.272;2022-09-29T18:08:53;18.40;91.50
23839;DHT22;12100;44.384;20.272;2022-09-29T18:11:21;18.30;91.80
23839;DHT22;12100;44.384;20.272;2022-09-29T18:13:47;18.20;92.30
23839;DHT22;12100;44.384;20.272;2022-09-29T18:16:16;18.10;93.40
23839;DHT22;12100;44.384;20.272;2022-09-29T18:18:42;17.90;93.80
23839;DHT22;12100;44.384;20.272;2022-09-29T18:21:09;17.90;94.20
23839;DHT22;12100;44.384;20.272;2022-09-29T18:23:36;17.80;95.10
23839;DHT22;12100;44.384;20.272;2022-09-29T18:26:03;17.70;95.40
23839;DHT22;12100;44.384;20.272;2022-09-29T18:28:30;17.50;96.10
23839;DHT22;12100;44.384;20.272;2022-09-29T18:31:25;17.40;97.20
23839;DHT22;12100;44.384;20.272;2022-09-29T18:33:50;17.30;97.50
23839;DHT22;12100;44.384;20.272;2022-09-29T18:36:16;17.10;99.10
23839;DHT22;12100;44.384;20.272;2022-09-29T18:38:42;17.10;99.90
23839;DHT22;12100;44.384;20.272;2022-09-29T18:41:16;17.00;99.90
23839;DHT22;12100;44.384;20.272;2022-09-29T18:43:45;16.90;99.90
23839;DHT22;12100;44.384;20.272;2022-09-29T18:46:10;16.90;99.90
23839;DHT22;12100;44.384;20.272;2022-09-29T18:48:38;16.80;99.90
23839;DHT22;12100;44.384;20.272;2022-09-29T18:51:04;16.80;99.90
23839;DHT22;12100;44.384;20.272;2022-09-29T18:53:30;16.80;99.90
23839;DHT22;12100;44.384;20.272;2022-09-29T18:56:05;16.80;99.90
23839;DHT22;12100;44.384;20.272;2022-09-29T18:58:31;16.70;99.90
23839;DHT22;12100;44.384;20.272;2022-09-29T19:00:58;16.60;99.90
23839;DHT22;12100;44.384;20.272;2022-09-29T19:03:27;16.50;99.90
23839;DHT22;12100;44.384;20.272;2022-09-29T19:05:54;16.50;99.90
23839;DHT22;12100;44.384;20.272;2022-09-29T19:08:20;16.40;99.90
23839;DHT22;12100;44.384;20.272;2022-09-29T19:10:51;16.40;99.90
23839;DHT22;12100;44.384;20.272;2022-09-29T19:13:18;16.40;99.90
23839;DHT22;12100;44.384;20.272;2022-09-29T19:15:44;16.30;99.90
23839;DHT22;12100;44.384;20.272;2022-09-29T19:18:18;16.30;99.90
23839;DHT22;12100;44.384;20.272;2022-09-29T19:20:49;16.30;99.90
23839;DHT22;12100;44.384;20.272;2022-09-29T19:23:15;16.20;99.90
23839;DHT22;12100;44.384;20.272;2022-09-29T19:25:44;16.20;99.90
23839;DHT22;12100;44.384;20.272;2022-09-29T19:28:11;16.20;99.90
23839;DHT22;12100;44.384;20.272;2022-09-29T19:30:38;16.20;99.90
23839;DHT22;12100;44.384;20.272;2022-09-29T19:33:06;16.20;99.90
23839;DHT22;12100;44.384;20.272;2022-09-29T19:35:33;16.20;99.90
23839;DHT22;12100;44.384;20.272;2022-09-29T19:38:00;16.10;99.90
23839;DHT22;12100;44.384;20.272;2022-09-29T19:40:29;16.10;99.90
23839;DHT22;12100;44.384;20.272;2022-09-29T19:42:55;16.10;99.90
23839;DHT22;12100;44.384;20.272;2022-09-29T19:45:25;16.10;99.90
23839;DHT22;12100;44.384;20.272;2022-09-29T19:47:51;16.00;99.90
23839;DHT22;12100;44.384;20.272;2022-09-29T19:50:22;15.90;99.90
23839;DHT22;12100;44.384;20.272;2022-09-29T19:53:07;15.90;99.90
23839;DHT22;12100;44.384;20.272;2022-09-29T19:55:37;15.90;99.90
23839;DHT22;12100;44.384;20.272;2022-09-29T19:58:04;15.80;99.90
23839;DHT22;12100;44.384;20.272;2022-09-29T20:00:30;15.80;99.90
23839;DHT22;12100;44.384;20.272;2022-09-29T20:02:56;15.80;99.90
23839;DHT22;12100;44.384;20.272;2022-09-29T20:05:22;15.70;99.90
23839;DHT22;12100;44.384;20.272;2022-09-29T20:07:48;15.70;99.90
23839;DHT22;12100;44.384;20.272;2022-09-29T20:10:15;15.70;99.90
23839;DHT22;12100;44.384;20.272;2022-09-29T20:12:46;15.70;99.90
23839;DHT22;12100;44.384;20.272;2022-09-29T20:15:11;15.70;99.90
23839;DHT22;12100;44.384;20.272;2022-09-29T20:17:38;15.60;99.90
23839;DHT22;12100;44.384;20.272;2022-09-29T20:20:05;15.60;99.90
23839;DHT22;12100;44.384;20.272;2022-09-29T20:22:33;15.50;99.90
23839;DHT22;12100;44.384;20.272;2022-09-29T20:25:00;15.50;99.90
23839;DHT22;12100;44.384;20.272;2022-09-29T20:27:26;15.50;99.90
23839;DHT22;12100;44.384;20.272;2022-09-29T20:29:52;15.40;99.90
23839;DHT22;12100;44.384;20.272;2022-09-29T20:32:19;15.40;99.90
23839;DHT22;12100;44.384;20.272;2022-09-29T20:34:45;15.20;99.90
23839;DHT22;12100;44.384;20.272;2022-09-29T20:37:11;15.20;99.90
23839;DHT22;12100;44.384;20.272;2022-09-29T20:39:38;15.10;99.90
23839;DHT22;12100;44.384;20.272;2022-09-29T20:42:04;15.10;99.90
23839;DHT22;12100;44.384;20.272;2022-09-29T20:44:30;15.10;99.90
23839;DHT22;12100;44.384;20.272;2022-09-29T20:46:56;15.00;99.90
23839;DHT22;12100;44.384;20.272;2022-09-29T20:49:24;14.90;99.90
23839;DHT22;12100;44.384;20.272;2022-09-29T20:51:50;14.80;99.90
23839;DHT22;12100;44.384;20.272;2022-09-29T20:54:16;14.70;99.90
23839;DHT22;12100;44.384;20.272;2022-09-29T20:56:43;14.70;99.90
23839;DHT22;12100;44.384;20.272;2022-09-29T20:59:14;14.70;99.90
23839;DHT22;12100;44.384;20.272;2022-09-29T21:01:42;14.70;99.90
23839;DHT22;12100;44.384;20.272;2022-09-29T21:04:12;14.60;99.90
23839;DHT22;12100;44.384;20.272;2022-09-29T21:06:41;14.60;99.90
23839;DHT22;12100;44.384;20.272;2022-09-29T21:09:10;14.60;99.90
23839;DHT22;12100;44.384;20.272;2022-09-29T21:11:37;14.50;99.90
23839;DHT22;12100;44.384;20.272;2022-09-29T21:14:06;14.50;99.90
23839;DHT22;12100;44.384;20.272;2022-09-29T21:16:37;14.50;99.90
23839;DHT22;12100;44.384;20.272;2022-09-29T21:19:06;14.50;99.90
23839;DHT22;12100;44.384;20.272;2022-09-29T21:21:32;14.60;99.90
23839;DHT22;12100;44.384;20.272;2022-09-29T21:23:58;14.50;99.90
23839;DHT22;12100;44.384;20.272;2022-09-29T21:26:27;14.50;99.90
23839;DHT22;12100;44.384;20.272;2022-09-29T21:28:56;14.50;99.90
23839;DHT22;12100;44.384;20.272;2022-09-29T21:31:29;14.40;99.90
23839;DHT22;12100;44.384;20.272;2022-09-29T21:34:00;14.40;99.90
23839;DHT22;12100;44.384;20.272;2022-09-29T21:36:27;14.50;99.90
23839;DHT22;12100;44.384;20.272;2022-09-29T21:38:54;14.40;99.90
23839;DHT22;12100;44.384;20.272;2022-09-29T21:41:27;14.50;99.90
23839;DHT22;12100;44.384;20.272;2022-09-29T21:43:59;14.50;99.90
23839;DHT22;12100;44.384;20.272;2022-09-29T21:46:30;14.50;99.90
23839;DHT22;12100;44.384;20.272;2022-09-29T21:48:59;14.60;99.90
23839;DHT22;12100;44.384;20.272;2022-09-29T21:51:27;14.60;99.90
23839;DHT22;12100;44.384;20.272;2022-09-29T21:53:56;14.60;99.90